Time;durP1;ratioP1;P1;durP2;ratioP2;P2;SDS_P1;SDS_P2;PMS_P1;PMS_P2;Temp;Humidity;BMP_temperature;BMP_pressure;BME280_temperature;BME280_humidity;BME280_pressure;Samples;Min_cycle;Max_cycle;Signal;HPM_P1;HPM_P2
2022/03/31 00:02:13;;;;;;;33.00;13.43;;;;;;;;;;4953376;29;20474;-71
2022/03/31 00:04:40;;;;;;;38.47;14.45;;;;;;;;;;4952073;29;20026;-71
2022/03/31 00:07:06;;;;;;;28.42;11.82;;;;;;;;;;4953453;29;20035;-71
2022/03/31 00:09:32;;;;;;;37.63;11.63;;;;;;;;;;4950498;28;20047;-71
2022/03/31 00:11:59;;;;;;;27.95;10.30;;;;;;;;;;4951016;29;20027;-71
2022/03/31 00:14:28;;;;;;;27.73;10.90;;;;;;;;;;4951080;29;20027;-71
2022/03/31 00:16:54;;;;;;;37.13;10.27;;;;;;;;;;4953551;29;20498;-71
2022/03/31 00:19:21;;;;;;;34.25;10.23;;;;;;;;;;4952463;28;20027;-71
2022/03/31 00:21:48;;;;;;;34.47;11.52;;;;;;;;;;4951073;29;20096;-71
2022/03/31 00:24:15;;;;;;;27.17;10.93;;;;;;;;;;4950995;29;20027;-71
2022/03/31 00:26:41;;;;;;;28.13;10.95;;;;;;;;;;4950735;29;20382;-71
2022/03/31 00:29:08;;;;;;;25.95;10.50;;;;;;;;;;4953147;29;20031;-71
2022/03/31 00:31:34;;;;;;;24.30;10.05;;;;;;;;;;4951397;29;20034;-71
2022/03/31 00:34:00;;;;;;;26.98;9.68;;;;;;;;;;4950420;29;20030;-71
2022/03/31 00:36:27;;;;;;;27.65;11.82;;;;;;;;;;4950614;29;20595;-71
2022/03/31 00:41:39;;;;;;;54.42;15.73;;;;;;;;;;4950666;29;20035;-71
2022/03/31 00:44:07;;;;;;;41.38;14.95;;;;;;;;;;4952661;29;20374;-71
2022/03/31 00:46:34;;;;;;;43.22;14.90;;;;;;;;;;4952054;29;20407;-71
2022/03/31 00:49:01;;;;;;;32.30;14.13;;;;;;;;;;4950393;29;20035;-71
2022/03/31 00:51:29;;;;;;;41.92;14.80;;;;;;;;;;4950428;29;20411;-71
2022/03/31 00:53:55;;;;;;;41.28;15.40;;;;;;;;;;4950298;29;20031;-71
2022/03/31 00:56:22;;;;;;;39.55;15.30;;;;;;;;;;4951389;29;20031;-71
2022/03/31 00:58:49;;;;;;;42.83;14.57;;;;;;;;;;4951834;29;20023;-71
2022/03/31 01:01:16;;;;;;;31.92;12.70;;;;;;;;;;4950512;28;20058;-71
2022/03/31 01:03:42;;;;;;;47.25;17.00;;;;;;;;;;4947085;29;20035;-71
2022/03/31 01:06:08;;;;;;;47.15;17.05;;;;;;;;;;4950187;29;20029;-71
2022/03/31 01:08:34;;;;;;;43.80;14.70;;;;;;;;;;4950033;29;20046;-71
2022/03/31 01:11:01;;;;;;;41.33;14.85;;;;;;;;;;4952682;29;20062;-71
2022/03/31 01:13:27;;;;;;;43.90;15.40;;;;;;;;;;4950148;29;20097;-71
2022/03/31 01:15:54;;;;;;;35.40;13.88;;;;;;;;;;4949985;29;20028;-71
2022/03/31 01:18:21;;;;;;;34.42;14.35;;;;;;;;;;4950076;29;20022;-71
2022/03/31 01:20:47;;;;;;;36.30;13.95;;;;;;;;;;4949488;28;20034;-71
2022/03/31 01:23:14;;;;;;;32.17;13.60;;;;;;;;;;4941810;29;20038;-71
2022/03/31 01:25:41;;;;;;;41.63;14.63;;;;;;;;;;4953029;29;20031;-71
2022/03/31 01:28:08;;;;;;;37.33;13.73;;;;;;;;;;4952020;29;20073;-70
2022/03/31 01:30:34;;;;;;;36.90;13.60;;;;;;;;;;4949884;29;20520;-71
2022/03/31 01:33:01;;;;;;;40.17;13.45;;;;;;;;;;4949967;29;20411;-71
2022/03/31 01:35:27;;;;;;;37.88;13.82;;;;;;;;;;4950060;29;20805;-71
2022/03/31 01:37:53;;;;;;;36.65;13.80;;;;;;;;;;4952362;29;20093;-71
2022/03/31 01:40:20;;;;;;;38.25;10.38;;;;;;;;;;4950607;29;20032;-71
2022/03/31 01:42:46;;;;;;;24.55;10.55;;;;;;;;;;4949573;29;20496;-71
2022/03/31 01:45:14;;;;;;;32.67;13.70;;;;;;;;;;4949735;29;20411;-71
2022/03/31 01:47:41;;;;;;;36.72;12.75;;;;;;;;;;4949732;29;20028;-71
2022/03/31 01:50:09;;;;;;;29.35;11.30;;;;;;;;;;4952250;29;20505;-71
2022/03/31 01:52:36;;;;;;;35.88;11.40;;;;;;;;;;4950236;29;20031;-71
2022/03/31 01:55:03;;;;;;;22.08;8.57;;;;;;;;;;4949531;29;20027;-71
2022/03/31 01:57:30;;;;;;;33.33;9.70;;;;;;;;;;4949469;29;20015;-71
2022/03/31 01:59:56;;;;;;;28.85;9.52;;;;;;;;;;4949633;29;20038;-71
2022/03/31 02:02:22;;;;;;;28.48;9.65;;;;;;;;;;4950343;29;20038;-71
2022/03/31 02:04:49;;;;;;;23.08;9.00;;;;;;;;;;4951638;29;20039;-71
2022/03/31 02:07:16;;;;;;;25.38;9.55;;;;;;;;;;4950198;29;20480;-71
2022/03/31 02:09:42;;;;;;;19.10;9.32;;;;;;;;;;4949445;29;20471;-71
2022/03/31 02:12:09;;;;;;;24.88;9.60;;;;;;;;;;4949368;29;20542;-71
2022/03/31 02:14:37;;;;;;;36.08;9.85;;;;;;;;;;4949518;29;20020;-71
2022/03/31 02:17:07;;;;;;;29.15;9.68;;;;;;;;;;4952238;29;20066;-71
2022/03/31 02:19:34;;;;;;;27.20;9.80;;;;;;;;;;4950071;29;20366;-71
2022/03/31 02:22:00;;;;;;;29.10;9.82;;;;;;;;;;4949417;29;20032;-71
2022/03/31 02:24:26;;;;;;;22.23;9.07;;;;;;;;;;4949252;29;20046;-71
2022/03/31 02:26:54;;;;;;;26.98;9.30;;;;;;;;;;4948983;29;20027;-71
2022/03/31 02:29:20;;;;;;;28.63;9.63;;;;;;;;;;4938909;29;20038;-71
2022/03/31 02:31:47;;;;;;;29.20;9.50;;;;;;;;;;4951391;28;20412;-71
2022/03/31 02:34:14;;;;;;;23.88;9.57;;;;;;;;;;4953212;29;20031;-71
2022/03/31 02:36:41;;;;;;;29.02;10.35;;;;;;;;;;4939484;29;20027;-71
2022/03/31 02:39:08;;;;;;;23.15;9.05;;;;;;;;;;4952621;29;20027;-71
2022/03/31 02:41:35;;;;;;;23.65;9.65;;;;;;;;;;4952625;29;20028;-71
2022/03/31 02:44:06;;;;;;;31.30;9.77;;;;;;;;;;4955042;29;20029;-71
2022/03/31 02:46:32;;;;;;;29.80;9.23;;;;;;;;;;4953303;29;20039;-71
2022/03/31 02:48:59;;;;;;;22.63;8.38;;;;;;;;;;4952397;29;20393;-71
2022/03/31 02:51:26;;;;;;;21.27;9.52;;;;;;;;;;4952445;29;20023;-71
2022/03/31 02:56:38;;;;;;;25.58;8.98;;;;;;;;;;4952631;29;20036;-71
2022/03/31 02:59:07;;;;;;;19.33;8.48;;;;;;;;;;4955047;29;20030;-71
2022/03/31 03:01:33;;;;;;;24.33;8.82;;;;;;;;;;4952796;29;20039;-71
2022/03/31 03:04:00;;;;;;;22.52;7.90;;;;;;;;;;4952083;29;20074;-71
2022/03/31 03:06:27;;;;;;;20.98;8.50;;;;;;;;;;4952049;29;20089;-71
2022/03/31 03:08:57;;;;;;;22.60;8.25;;;;;;;;;;4951717;29;20043;-71
2022/03/31 03:11:24;;;;;;;19.30;7.13;;;;;;;;;;4952786;29;20023;-71
2022/03/31 03:13:50;;;;;;;17.23;6.47;;;;;;;;;;4954120;29;20031;-71
2022/03/31 03:16:17;;;;;;;15.18;6.82;;;;;;;;;;4952400;29;20028;-71
2022/03/31 03:18:43;;;;;;;16.38;7.22;;;;;;;;;;4951779;29;20029;-71
2022/03/31 03:21:10;;;;;;;17.48;7.60;;;;;;;;;;4951894;29;20038;-71
2022/03/31 03:23:38;;;;;;;14.05;6.90;;;;;;;;;;4951566;29;20023;-71
2022/03/31 03:26:05;;;;;;;16.30;7.35;;;;;;;;;;4954455;29;20491;-71
2022/03/31 03:28:32;;;;;;;17.02;7.45;;;;;;;;;;4951946;29;21182;-71
2022/03/31 03:30:58;;;;;;;16.63;7.18;;;;;;;;;;4951696;29;20023;-71
2022/03/31 03:33:25;;;;;;;17.80;7.18;;;;;;;;;;4951720;29;20500;-71
2022/03/31 03:35:51;;;;;;;13.85;7.05;;;;;;;;;;4951752;29;20032;-71
2022/03/31 03:38:17;;;;;;;22.05;8.32;;;;;;;;;;4952890;29;20081;-71
2022/03/31 03:40:44;;;;;;;16.25;8.40;;;;;;;;;;4953038;29;20361;-71
2022/03/31 03:43:10;;;;;;;17.35;7.57;;;;;;;;;;4951297;28;20517;-71
2022/03/31 03:45:38;;;;;;;20.67;8.15;;;;;;;;;;4951712;29;20033;-70
2022/03/31 03:48:06;;;;;;;19.48;7.63;;;;;;;;;;4951287;29;20057;-71
2022/03/31 03:50:33;;;;;;;20.25;7.93;;;;;;;;;;4951488;29;20914;-71
2022/03/31 03:53:03;;;;;;;19.92;8.13;;;;;;;;;;4953613;29;22434;-71
2022/03/31 03:55:34;;;;;;;16.85;7.65;;;;;;;;;;4952010;29;20025;-71
2022/03/31 03:58:00;;;;;;;16.38;7.70;;;;;;;;;;4951305;29;20113;-71
2022/03/31 04:00:27;;;;;;;20.17;7.75;;;;;;;;;;4951313;29;20019;-71
2022/03/31 04:02:53;;;;;;;19.13;7.53;;;;;;;;;;4951300;29;20492;-71
2022/03/31 04:05:20;;;;;;;18.17;8.13;;;;;;;;;;4952188;29;20023;-71
2022/03/31 04:07:47;;;;;;;15.18;8.00;;;;;;;;;;4952582;29;20038;-71
2022/03/31 04:10:14;;;;;;;18.98;8.32;;;;;;;;;;4951796;29;20039;-71
2022/03/31 04:12:40;;;;;;;15.98;7.97;;;;;;;;;;4950920;29;20033;-70
2022/03/31 04:15:08;;;;;;;19.27;8.55;;;;;;;;;;4950838;29;20015;-71
2022/03/31 04:17:35;;;;;;;19.08;8.02;;;;;;;;;;4951060;29;20026;-71
2022/03/31 04:20:01;;;;;;;15.75;8.35;;;;;;;;;;4953475;29;20035;-71
2022/03/31 04:22:28;;;;;;;21.15;9.80;;;;;;;;;;4950986;29;20023;-71
2022/03/31 04:24:54;;;;;;;18.05;8.55;;;;;;;;;;4950774;29;20053;-71
2022/03/31 04:27:20;;;;;;;20.15;9.35;;;;;;;;;;4950691;29;20046;-70
2022/03/31 04:29:47;;;;;;;18.48;8.90;;;;;;;;;;4950664;29;20030;-71
2022/03/31 04:32:13;;;;;;;22.25;8.75;;;;;;;;;;4953137;29;20028;-71
2022/03/31 04:34:39;;;;;;;18.63;8.90;;;;;;;;;;4951496;29;20031;-70
2022/03/31 04:37:06;;;;;;;18.33;8.70;;;;;;;;;;4952619;29;20031;-71
2022/03/31 04:39:32;;;;;;;22.45;8.43;;;;;;;;;;4951840;29;20029;-71
2022/03/31 04:41:59;;;;;;;17.02;8.55;;;;;;;;;;4950835;29;20037;-71
2022/03/31 04:44:25;;;;;;;17.80;9.15;;;;;;;;;;4950982;29;20085;-71
2022/03/31 04:46:51;;;;;;;22.42;10.13;;;;;;;;;;4952760;29;20559;-71
2022/03/31 04:49:17;;;;;;;25.88;10.07;;;;;;;;;;4950741;29;20034;-71
2022/03/31 04:51:44;;;;;;;28.98;10.48;;;;;;;;;;4949979;29;20093;-71
2022/03/31 04:54:10;;;;;;;27.50;10.90;;;;;;;;;;4950228;29;20396;-71
2022/03/31 04:56:39;;;;;;;20.52;9.73;;;;;;;;;;4950572;28;20020;-71
2022/03/31 04:59:05;;;;;;;22.58;9.23;;;;;;;;;;4953151;29;20077;-71
2022/03/31 05:01:32;;;;;;;21.35;10.38;;;;;;;;;;4950773;29;20026;-71
2022/03/31 05:03:58;;;;;;;21.10;9.73;;;;;;;;;;4950372;29;20035;-71
2022/03/31 05:06:24;;;;;;;25.85;11.00;;;;;;;;;;4949776;29;20029;-71
2022/03/31 05:08:51;;;;;;;25.52;10.32;;;;;;;;;;4949988;29;20039;-71
2022/03/31 05:11:17;;;;;;;21.35;10.13;;;;;;;;;;4951718;29;20053;-71
2022/03/31 05:13:43;;;;;;;22.15;11.00;;;;;;;;;;4951091;29;20037;-71
2022/03/31 05:16:10;;;;;;;22.65;10.88;;;;;;;;;;4951652;29;20070;-71
2022/03/31 05:18:36;;;;;;;22.98;11.75;;;;;;;;;;4949936;29;20408;-71
2022/03/31 05:21:02;;;;;;;29.38;12.35;;;;;;;;;;4949927;29;20027;-72
2022/03/31 05:23:29;;;;;;;25.40;10.98;;;;;;;;;;4950072;29;20041;-71
2022/03/31 05:25:55;;;;;;;29.88;11.90;;;;;;;;;;4952318;29;20023;-71
2022/03/31 05:28:21;;;;;;;26.25;11.73;;;;;;;;;;4950376;29;20039;-71
2022/03/31 05:30:48;;;;;;;23.45;11.65;;;;;;;;;;4950039;29;20468;-71
2022/03/31 05:33:14;;;;;;;24.27;11.35;;;;;;;;;;4949831;29;20040;-71
2022/03/31 05:35:40;;;;;;;24.63;12.13;;;;;;;;;;4949409;29;20028;-71
2022/03/31 05:38:07;;;;;;;22.77;11.43;;;;;;;;;;4952348;29;20027;-71
2022/03/31 05:40:34;;;;;;;26.30;13.15;;;;;;;;;;4950187;29;20050;-71
2022/03/31 05:43:00;;;;;;;29.67;13.02;;;;;;;;;;4949667;29;20023;-71
2022/03/31 05:45:26;;;;;;;35.53;13.35;;;;;;;;;;4949709;29;20019;-71
2022/03/31 05:47:54;;;;;;;28.35;13.02;;;;;;;;;;4949273;29;20041;-71
2022/03/31 05:50:20;;;;;;;25.02;13.10;;;;;;;;;;4950884;29;20118;-71
2022/03/31 05:52:47;;;;;;;28.33;13.10;;;;;;;;;;4951458;29;20019;-71
2022/03/31 05:55:14;;;;;;;25.98;12.93;;;;;;;;;;4949942;29;20511;-71
2022/03/31 05:57:41;;;;;;;30.05;14.57;;;;;;;;;;4949473;29;20027;-71
2022/03/31 06:00:09;;;;;;;31.38;15.38;;;;;;;;;;4949610;29;20019;-71
2022/03/31 06:02:35;;;;;;;35.42;16.40;;;;;;;;;;4949249;29;20484;-71
2022/03/31 06:05:02;;;;;;;31.05;14.43;;;;;;;;;;4940870;29;20939;-71
2022/03/31 06:07:28;;;;;;;35.22;16.67;;;;;;;;;;4951051;28;20518;-71
2022/03/31 06:09:54;;;;;;;37.13;21.45;;;;;;;;;;4936784;29;20055;-71
2022/03/31 06:12:21;;;;;;;39.35;20.85;;;;;;;;;;4953122;29;20023;-72
2022/03/31 06:14:47;;;;;;;38.83;17.52;;;;;;;;;;4952859;29;20082;-71
2022/03/31 06:17:13;;;;;;;35.05;14.18;;;;;;;;;;4954702;29;20023;-71
2022/03/31 06:19:40;;;;;;;30.15;15.73;;;;;;;;;;4953514;29;20033;-71
2022/03/31 06:22:06;;;;;;;30.20;15.57;;;;;;;;;;4955660;29;20488;-71
2022/03/31 06:24:33;;;;;;;34.67;17.58;;;;;;;;;;4951649;29;20034;-71
2022/03/31 06:27:00;;;;;;;34.25;15.10;;;;;;;;;;4954896;29;20560;-72
2022/03/31 06:29:27;;;;;;;30.05;15.05;;;;;;;;;;4951767;29;20041;-71
2022/03/31 06:31:54;;;;;;;32.03;16.10;;;;;;;;;;4954464;29;20027;-71
2022/03/31 06:34:21;;;;;;;31.13;15.88;;;;;;;;;;4952532;29;20037;-71
2022/03/31 06:36:48;;;;;;;30.98;14.98;;;;;;;;;;4952301;29;20027;-71
2022/03/31 06:39:14;;;;;;;29.70;13.60;;;;;;;;;;4952600;29;20038;-72
2022/03/31 06:41:42;;;;;;;25.70;14.27;;;;;;;;;;4952471;29;20484;-70
2022/03/31 06:44:08;;;;;;;34.85;20.10;;;;;;;;;;4939670;29;20015;-71
2022/03/31 06:46:35;;;;;;;38.88;18.83;;;;;;;;;;4937567;29;20038;-70
2022/03/31 06:49:02;;;;;;;35.90;18.70;;;;;;;;;;4952259;28;20039;-71
2022/03/31 06:51:28;;;;;;;40.13;20.42;;;;;;;;;;4952625;29;20447;-71
2022/03/31 06:53:57;;;;;;;62.42;34.13;;;;;;;;;;4952108;29;20449;-71
2022/03/31 06:56:27;;;;;;;52.00;29.92;;;;;;;;;;4953276;29;20029;-71
2022/03/31 06:58:55;;;;;;;49.80;26.40;;;;;;;;;;4954769;29;20091;-71
2022/03/31 07:01:22;;;;;;;27.85;14.55;;;;;;;;;;4952887;29;20035;-71
2022/03/31 07:03:48;;;;;;;36.65;21.88;;;;;;;;;;4951769;29;20035;-71
2022/03/31 07:06:15;;;;;;;36.55;19.48;;;;;;;;;;4951961;29;20031;-71
2022/03/31 07:08:41;;;;;;;37.15;17.25;;;;;;;;;;4953587;29;20522;-72
2022/03/31 07:11:09;;;;;;;29.80;14.57;;;;;;;;;;4953842;29;20057;-71
2022/03/31 07:13:35;;;;;;;32.22;17.00;;;;;;;;;;4952754;29;20023;-71
2022/03/31 07:16:01;;;;;;;24.17;13.13;;;;;;;;;;4953094;28;20411;-71
2022/03/31 07:18:28;;;;;;;24.20;12.65;;;;;;;;;;4950752;28;20047;-71
2022/03/31 07:20:57;;;;;;;11.68;7.28;;;;;;;;;;4953883;29;20035;-71
2022/03/31 07:23:25;;;;;;;11.80;6.15;;;;;;;;;;4941428;29;20031;-71
2022/03/31 07:25:53;;;;;;;15.15;6.43;;;;;;;;;;4953766;29;20041;-72
2022/03/31 07:28:19;;;;;;;12.73;6.97;;;;;;;;;;4952422;29;20051;-71
2022/03/31 07:30:47;;;;;;;13.15;7.65;;;;;;;;;;4951052;29;20369;-71
2022/03/31 07:33:13;;;;;;;21.42;10.43;;;;;;;;;;4952431;29;20029;-71
2022/03/31 07:35:42;;;;;;;23.33;12.45;;;;;;;;;;4951410;29;20035;-71
2022/03/31 07:38:09;;;;;;;21.23;10.02;;;;;;;;;;4938782;29;20058;-71
2022/03/31 07:40:37;;;;;;;20.08;10.30;;;;;;;;;;4952742;29;20502;-71
2022/03/31 07:43:04;;;;;;;16.52;9.75;;;;;;;;;;4951197;29;20026;-71
2022/03/31 07:45:31;;;;;;;16.80;9.80;;;;;;;;;;4951299;29;20029;-72
2022/03/31 07:47:58;;;;;;;15.50;9.30;;;;;;;;;;4951143;29;20039;-71
2022/03/31 07:50:24;;;;;;;16.38;9.52;;;;;;;;;;4952012;29;20065;-72
2022/03/31 07:52:50;;;;;;;18.55;10.45;;;;;;;;;;4953239;29;20038;-71
2022/03/31 07:55:17;;;;;;;18.35;10.20;;;;;;;;;;4952615;28;20022;-71
2022/03/31 07:57:44;;;;;;;17.20;10.55;;;;;;;;;;4952920;29;20392;-71
2022/03/31 08:00:12;;;;;;;22.45;11.80;;;;;;;;;;4950873;29;20484;-71
2022/03/31 08:02:47;;;;;;;19.88;11.77;;;;;;;;;;4953385;29;20033;-71
2022/03/31 08:05:16;;;;;;;17.55;9.88;;;;;;;;;;4936506;29;20024;-71
2022/03/31 08:07:42;;;;;;;17.48;10.32;;;;;;;;;;4953575;29;20509;-71
2022/03/31 08:10:08;;;;;;;16.60;10.50;;;;;;;;;;4951371;29;20106;-71
2022/03/31 08:12:35;;;;;;;16.92;10.43;;;;;;;;;;4950669;29;20516;-71
2022/03/31 08:15:03;;;;;;;21.45;11.43;;;;;;;;;;4951490;29;20030;-71
2022/03/31 08:17:30;;;;;;;17.60;10.50;;;;;;;;;;4950704;29;20027;-71
2022/03/31 08:19:57;;;;;;;18.48;9.60;;;;;;;;;;4953088;29;20041;-71
2022/03/31 08:22:24;;;;;;;19.23;10.30;;;;;;;;;;4951457;29;20019;-71
2022/03/31 08:24:50;;;;;;;19.70;10.55;;;;;;;;;;4950604;29;20039;-71
2022/03/31 08:27:17;;;;;;;13.55;8.20;;;;;;;;;;4950409;29;20031;-71
2022/03/31 08:29:43;;;;;;;13.50;8.25;;;;;;;;;;4950393;28;20031;-69
2022/03/31 08:32:10;;;;;;;14.52;9.00;;;;;;;;;;4953046;29;20366;-71
2022/03/31 08:34:36;;;;;;;16.70;9.63;;;;;;;;;;4954424;28;20029;-69
2022/03/31 08:37:03;;;;;;;15.80;8.85;;;;;;;;;;4950636;28;20031;-69
2022/03/31 08:39:30;;;;;;;11.73;7.78;;;;;;;;;;4950462;29;20022;-68
2022/03/31 08:41:56;;;;;;;12.40;8.05;;;;;;;;;;4949963;29;20514;-71
2022/03/31 08:44:23;;;;;;;12.63;8.27;;;;;;;;;;4951265;29;20023;-71
2022/03/31 08:46:50;;;;;;;14.18;8.40;;;;;;;;;;4952058;29;20042;-71
2022/03/31 08:49:16;;;;;;;17.05;9.20;;;;;;;;;;4939269;29;20049;-71
2022/03/31 08:51:43;;;;;;;12.63;8.70;;;;;;;;;;4950024;28;20019;-70
2022/03/31 08:54:10;;;;;;;14.48;9.20;;;;;;;;;;4950346;29;20015;-70
2022/03/31 08:56:37;;;;;;;14.25;8.98;;;;;;;;;;4944719;29;20031;-71
2022/03/31 08:59:04;;;;;;;14.23;9.68;;;;;;;;;;4952531;29;20035;-71
2022/03/31 09:01:32;;;;;;;14.40;9.52;;;;;;;;;;4950530;29;20023;-70
2022/03/31 09:03:58;;;;;;;17.85;10.02;;;;;;;;;;4948725;29;20050;-70
2022/03/31 09:06:28;;;;;;;17.42;10.15;;;;;;;;;;4950117;29;20495;-71
2022/03/31 09:08:58;;;;;;;17.35;10.57;;;;;;;;;;4949346;29;20067;-71
2022/03/31 09:11:31;;;;;;;17.63;9.68;;;;;;;;;;4950446;29;20026;-71
2022/03/31 09:13:59;;;;;;;15.20;9.73;;;;;;;;;;4950641;29;20028;-70
2022/03/31 09:16:31;;;;;;;17.33;10.10;;;;;;;;;;4950330;29;20449;-71
2022/03/31 09:19:01;;;;;;;17.98;10.43;;;;;;;;;;4949995;29;20031;-71
2022/03/31 09:21:28;;;;;;;17.67;9.85;;;;;;;;;;4949879;29;20043;-71
2022/03/31 09:23:54;;;;;;;18.08;10.35;;;;;;;;;;4949796;29;20506;-70
2022/03/31 09:26:21;;;;;;;15.50;10.18;;;;;;;;;;4942071;29;20042;-71
2022/03/31 09:28:49;;;;;;;18.55;9.90;;;;;;;;;;4952302;29;20101;-71
2022/03/31 09:31:22;;;;;;;17.60;11.30;;;;;;;;;;4951667;29;20481;-71
2022/03/31 09:33:53;;;;;;;19.08;11.15;;;;;;;;;;4949576;29;20488;-70
2022/03/31 09:36:22;;;;;;;16.90;10.48;;;;;;;;;;4949559;29;20034;-70
2022/03/31 09:38:56;;;;;;;19.55;11.90;;;;;;;;;;4949914;29;20028;-70
2022/03/31 09:41:22;;;;;;;23.45;13.10;;;;;;;;;;4949979;28;20033;-71
2022/03/31 09:43:49;;;;;;;19.38;10.52;;;;;;;;;;4955256;29;20036;-71
2022/03/31 09:46:25;;;;;;;18.75;11.90;;;;;;;;;;4954166;29;20046;-71
2022/03/31 09:48:52;;;;;;;22.77;12.40;;;;;;;;;;4953805;29;20035;-71
2022/03/31 09:51:19;;;;;;;18.08;12.02;;;;;;;;;;4953486;29;20110;-71
2022/03/31 09:53:47;;;;;;;18.10;12.30;;;;;;;;;;4953611;29;20030;-70
2022/03/31 09:56:14;;;;;;;21.42;12.40;;;;;;;;;;4955498;29;20035;-71
2022/03/31 09:58:42;;;;;;;21.85;12.27;;;;;;;;;;4954921;29;20029;-71
2022/03/31 10:01:08;;;;;;;24.50;14.00;;;;;;;;;;4955887;29;20043;-71
2022/03/31 10:03:38;;;;;;;19.35;13.32;;;;;;;;;;4953266;29;20023;-71
2022/03/31 10:06:05;;;;;;;21.40;13.15;;;;;;;;;;4953434;29;20035;-70
2022/03/31 10:08:42;;;;;;;23.50;14.07;;;;;;;;;;4953353;29;20044;-70
2022/03/31 10:11:09;;;;;;;20.90;13.55;;;;;;;;;;4955040;29;20093;-71
2022/03/31 10:13:38;;;;;;;20.63;12.40;;;;;;;;;;4953533;29;20031;-71
2022/03/31 10:16:09;;;;;;;22.20;12.77;;;;;;;;;;4953071;29;20035;-70
2022/03/31 10:18:36;;;;;;;19.52;12.70;;;;;;;;;;4953137;29;20027;-70
2022/03/31 10:21:03;;;;;;;23.65;12.50;;;;;;;;;;4953290;29;20074;-70
2022/03/31 10:26:21;;;;;;;20.38;12.20;;;;;;;;;;4940116;29;20049;-70
2022/03/31 10:29:01;;;;;;;21.27;11.57;;;;;;;;;;4954483;29;20039;-70
2022/03/31 10:31:34;;;;;;;20.92;11.77;;;;;;;;;;4953397;29;20448;-70
2022/03/31 10:34:01;;;;;;;19.15;10.80;;;;;;;;;;4952310;29;20023;-70
2022/03/31 10:36:36;;;;;;;17.30;10.90;;;;;;;;;;4952638;29;20469;-70
2022/03/31 10:39:05;;;;;;;22.00;10.32;;;;;;;;;;4945879;29;20030;-70
2022/03/31 10:41:36;;;;;;;13.88;10.45;;;;;;;;;;4952748;29;20044;-70
2022/03/31 10:44:03;;;;;;;18.25;10.45;;;;;;;;;;4954853;29;20027;-70
2022/03/31 10:46:32;;;;;;;15.57;9.88;;;;;;;;;;4953083;29;20027;-71
2022/03/31 10:48:59;;;;;;;19.23;10.23;;;;;;;;;;4952648;29;20490;-70
2022/03/31 10:51:32;;;;;;;19.65;10.68;;;;;;;;;;4952869;29;20019;-70
2022/03/31 10:54:00;;;;;;;18.42;11.30;;;;;;;;;;4944482;29;20078;-70
2022/03/31 10:56:27;;;;;;;18.98;11.32;;;;;;;;;;4952922;29;20481;-70
2022/03/31 10:58:55;;;;;;;17.52;11.30;;;;;;;;;;4955066;29;20028;-69
2022/03/31 11:01:22;;;;;;;18.58;11.40;;;;;;;;;;4953464;29;20039;-70
2022/03/31 11:03:53;;;;;;;20.10;11.15;;;;;;;;;;4953141;29;20053;-70
2022/03/31 11:06:20;;;;;;;18.83;11.45;;;;;;;;;;4953371;29;20023;-70
2022/03/31 11:08:48;;;;;;;14.73;9.63;;;;;;;;;;4952558;29;20058;-70
2022/03/31 11:11:20;;;;;;;12.75;8.98;;;;;;;;;;4955152;29;20031;-70
2022/03/31 11:13:47;;;;;;;15.93;9.98;;;;;;;;;;4954633;29;20039;-70
2022/03/31 11:16:15;;;;;;;12.93;9.05;;;;;;;;;;4953713;29;20020;-71
2022/03/31 11:18:43;;;;;;;18.25;11.05;;;;;;;;;;4953375;29;20031;-70
2022/03/31 11:21:10;;;;;;;14.52;9.50;;;;;;;;;;4953023;29;20488;-70
2022/03/31 11:23:45;;;;;;;17.10;8.00;;;;;;;;;;4952803;29;20032;-70
2022/03/31 11:26:11;;;;;;;12.63;7.95;;;;;;;;;;4940105;29;20049;-68
2022/03/31 11:28:37;;;;;;;17.35;8.30;;;;;;;;;;4955557;29;20046;-70
2022/03/31 11:31:11;;;;;;;16.33;8.82;;;;;;;;;;4953099;29;20037;-70
2022/03/31 11:33:38;;;;;;;13.85;8.45;;;;;;;;;;4952791;29;20024;-70
2022/03/31 11:36:05;;;;;;;17.40;9.35;;;;;;;;;;4952534;29;20096;-70
2022/03/31 11:38:31;;;;;;;20.67;8.05;;;;;;;;;;4943561;29;20027;-70
2022/03/31 11:40:58;;;;;;;15.85;8.82;;;;;;;;;;4954839;29;20023;-70
2022/03/31 11:43:24;;;;;;;15.38;9.10;;;;;;;;;;4939965;29;20019;-70
2022/03/31 11:45:52;;;;;;;13.93;9.05;;;;;;;;;;4952513;29;20023;-70
2022/03/31 11:48:23;;;;;;;18.08;9.57;;;;;;;;;;4948722;29;20065;-70
2022/03/31 11:50:57;;;;;;;15.82;9.23;;;;;;;;;;4951474;29;20382;-70
2022/03/31 11:53:27;;;;;;;17.35;11.07;;;;;;;;;;4953949;29;20082;-70
2022/03/31 11:56:05;;;;;;;13.43;9.02;;;;;;;;;;4953262;29;20377;-70
2022/03/31 11:58:36;;;;;;;17.50;10.82;;;;;;;;;;4936129;29;20046;-70
2022/03/31 12:01:02;;;;;;;13.80;8.70;;;;;;;;;;4951123;29;20042;-70
2022/03/31 12:03:35;;;;;;;13.75;8.35;;;;;;;;;;4951420;29;20033;-70
2022/03/31 12:06:02;;;;;;;17.33;9.18;;;;;;;;;;4944218;29;20035;-70
2022/03/31 12:08:29;;;;;;;14.45;8.60;;;;;;;;;;4951053;29;20108;-70
2022/03/31 12:10:56;;;;;;;12.70;8.40;;;;;;;;;;4951638;29;20404;-70
2022/03/31 12:13:24;;;;;;;14.85;8.95;;;;;;;;;;4951651;29;20019;-70
2022/03/31 12:16:01;;;;;;;17.60;10.15;;;;;;;;;;4951429;29;20035;-69
2022/03/31 12:18:30;;;;;;;17.55;10.48;;;;;;;;;;4950915;29;20029;-70
2022/03/31 12:21:01;;;;;;;16.00;10.35;;;;;;;;;;4949173;29;20400;-70
2022/03/31 12:23:27;;;;;;;18.17;9.38;;;;;;;;;;4951112;29;20027;-70
2022/03/31 12:25:54;;;;;;;15.32;10.27;;;;;;;;;;4953409;29;20034;-70
2022/03/31 12:28:23;;;;;;;15.38;9.85;;;;;;;;;;4951290;29;20049;-70
2022/03/31 12:30:50;;;;;;;13.80;9.85;;;;;;;;;;4950650;29;20015;-70
2022/03/31 12:33:19;;;;;;;15.02;9.38;;;;;;;;;;4950851;29;20043;-69
2022/03/31 12:35:55;;;;;;;15.25;9.43;;;;;;;;;;4950447;29;20019;-69
2022/03/31 12:38:32;;;;;;;12.90;8.35;;;;;;;;;;4952195;29;20027;-70
2022/03/31 12:40:59;;;;;;;12.25;8.02;;;;;;;;;;4951231;29;20027;-70
2022/03/31 12:43:26;;;;;;;15.18;8.50;;;;;;;;;;4951013;29;20035;-70
2022/03/31 12:45:52;;;;;;;14.63;8.82;;;;;;;;;;4950573;29;20027;-70
2022/03/31 12:48:19;;;;;;;12.18;7.78;;;;;;;;;;4950307;29;20035;-68
2022/03/31 12:50:46;;;;;;;11.82;6.57;;;;;;;;;;4950820;29;20034;-70
2022/03/31 12:53:13;;;;;;;13.07;7.50;;;;;;;;;;4952382;29;20031;-70
2022/03/31 12:55:43;;;;;;;10.65;7.20;;;;;;;;;;4953241;29;20405;-69
2022/03/31 12:58:10;;;;;;;15.02;6.95;;;;;;;;;;4952896;29;20030;-70
2022/03/31 13:00:37;;;;;;;14.05;7.35;;;;;;;;;;4950688;29;20047;-69
2022/03/31 13:03:03;;;;;;;10.57;7.35;;;;;;;;;;4949949;29;20489;-70
2022/03/31 13:05:30;;;;;;;15.25;7.97;;;;;;;;;;4950625;29;20028;-70
2022/03/31 13:07:57;;;;;;;12.50;7.30;;;;;;;;;;4952245;29;20041;-70
2022/03/31 13:10:25;;;;;;;11.50;7.47;;;;;;;;;;4949998;29;20039;-69
2022/03/31 13:12:52;;;;;;;13.43;6.72;;;;;;;;;;4950170;29;20034;-70
2022/03/31 13:15:18;;;;;;;13.02;7.53;;;;;;;;;;4950235;29;20043;-70
2022/03/31 13:17:45;;;;;;;12.27;7.13;;;;;;;;;;4949824;28;20016;-70
2022/03/31 13:20:14;;;;;;;11.20;7.82;;;;;;;;;;4937209;29;20061;-69
2022/03/31 13:22:42;;;;;;;15.52;8.77;;;;;;;;;;4952767;29;20030;-70
2022/03/31 13:25:09;;;;;;;13.68;8.82;;;;;;;;;;4952162;29;20117;-70
2022/03/31 13:27:36;;;;;;;14.38;9.80;;;;;;;;;;4948298;29;20015;-69
2022/03/31 13:30:04;;;;;;;16.38;9.13;;;;;;;;;;4950325;29;20094;-69
2022/03/31 13:32:30;;;;;;;17.55;9.77;;;;;;;;;;4949735;29;20031;-69
2022/03/31 13:34:56;;;;;;;16.63;10.18;;;;;;;;;;4952308;29;20419;-70
2022/03/31 13:37:24;;;;;;;13.98;9.65;;;;;;;;;;4951352;29;20031;-70
2022/03/31 13:39:51;;;;;;;18.05;9.90;;;;;;;;;;4949849;29;20031;-70
2022/03/31 13:42:18;;;;;;;14.60;8.63;;;;;;;;;;4950813;28;20031;-69
2022/03/31 13:44:45;;;;;;;13.23;8.98;;;;;;;;;;4958216;28;20027;-69
2022/03/31 13:47:12;;;;;;;15.98;8.80;;;;;;;;;;4936370;29;20040;-69
2022/03/31 13:49:39;;;;;;;14.20;8.73;;;;;;;;;;4950113;29;20528;-69
2022/03/31 13:52:06;;;;;;;13.75;9.13;;;;;;;;;;4951808;29;20373;-69
2022/03/31 13:54:34;;;;;;;12.43;8.50;;;;;;;;;;4949998;29;20035;-69
2022/03/31 13:57:01;;;;;;;14.68;8.77;;;;;;;;;;4949802;29;20024;-70
2022/03/31 14:02:13;;;;;;;15.70;8.95;;;;;;;;;;4932330;29;20028;-69
2022/03/31 14:04:39;;;;;;;14.05;8.93;;;;;;;;;;4950766;29;20035;-69
2022/03/31 14:07:07;;;;;;;14.75;8.43;;;;;;;;;;4949577;29;20024;-70
2022/03/31 14:09:35;;;;;;;20.52;8.55;;;;;;;;;;4949703;29;20398;-70
2022/03/31 14:12:01;;;;;;;13.52;8.27;;;;;;;;;;4949674;29;20493;-70
2022/03/31 14:14:28;;;;;;;14.57;7.63;;;;;;;;;;4950072;29;20019;-70
2022/03/31 14:16:55;;;;;;;15.80;7.93;;;;;;;;;;4949702;29;20033;-70
2022/03/31 14:19:23;;;;;;;12.18;7.68;;;;;;;;;;4949977;28;20100;-70
2022/03/31 14:21:50;;;;;;;14.98;8.45;;;;;;;;;;4947866;29;20527;-70
2022/03/31 14:24:18;;;;;;;17.67;8.75;;;;;;;;;;4949930;29;20027;-70
2022/03/31 14:26:45;;;;;;;17.40;10.45;;;;;;;;;;4949539;29;20023;-70
2022/03/31 14:29:13;;;;;;;16.13;9.95;;;;;;;;;;4943539;29;20115;-70
2022/03/31 14:31:40;;;;;;;15.80;10.52;;;;;;;;;;4955617;29;20019;-70
2022/03/31 14:34:08;;;;;;;17.70;10.50;;;;;;;;;;4953153;29;20400;-70
2022/03/31 14:36:35;;;;;;;20.92;10.80;;;;;;;;;;4952461;29;20019;-70